METAR Data
IDs: Format: Raw Decoded Include TAF

Data at: 1308 UTC 15 Jul 2020

KCDC 151253Z AUTO 04005KT 10SM CLR 13/01 A3015 RMK AO2 SLP131 T01330006
KCDC 151153Z AUTO 15004KT 10SM CLR 17/M02 A3014 RMK AO2 SLP119 T01671017 10239 20150 53006
KCDC 151053Z AUTO 22004KT 10SM CLR 16/00 A3013 RMK AO2 SLP116 T01560000
KCDC 150953Z AUTO 15005KT 10SM CLR 19/M01 A3012 RMK AO2 SLP106 T01941011
KCDC 150853Z AUTO 05007KT 10SM CLR 17/00 A3012 RMK AO2 SLP112 T01720000 53013
KCDC 150753Z AUTO 27004KT 10SM CLR 21/M02 A3010 RMK AO2 SLP096 T02061022
KCDC 150653Z AUTO 21005KT 10SM CLR 21/M02 A3009 RMK AO2 SLP092 T02111022 403390183
KCDC 150553Z AUTO 20004KT 10SM CLR 24/M02 A3008 RMK AO2 SLP087 T02391017 10328 20217 51007
KCDC 150453Z AUTO 15008KT 10SM CLR 24/M02 A3007 RMK AO2 SLP085 T02441017
KCDC 150353Z AUTO 18007KT 10SM CLR 26/M03 A3007 RMK AO2 SLP084 T02561028
KCDC 150253Z AUTO 21008KT 9SM CLR 28/M03 A3006 RMK AO2 SLP081 T02781033 53001
KCDC 150153Z AUTO 20016KT 10SM CLR 31/M04 A3005 RMK AO2 SLP080 T03061039
KCDC 150053Z AUTO 21017G21KT 10SM CLR 32/M04 A3005 RMK AO2 PK WND 21026/2356 SLP081 T03171039
KCDC 142353Z AUTO 21016G23KT 8SM CLR 33/M03 A3005 RMK AO2 SLP079 T03281033 10339 20317 58008
KCDC 142253Z AUTO 21018G23KT 7SM CLR 33/M02 A3006 RMK AO2 SLP084 T03331017
KCDC 142153Z AUTO 21017G28KT 9SM CLR 33/M01 A3007 RMK AO2 PK WND 21028/2150 SLP084 T03331011
KCDC 142053Z AUTO 22013G22KT 10SM CLR 33/M01 A3008 RMK AO2 SLP086 T03281011 58008
KCDC 141953Z AUTO 21016G23KT 10SM CLR 33/M02 A3009 RMK AO2 SLP087 T03331017
KCDC 141853Z AUTO 21013G20KT 10SM CLR 33/M02 A3010 RMK AO2 SLP091 T03281017
KCDC 141753Z AUTO 23011G20KT 10SM CLR 32/00 A3011 RMK AO2 SLP092 T03170000 10322 20183 55002
KCDC 141653Z AUTO 22012G17KT 10SM CLR 31/01 A3010 RMK AO2 SLP095 T03110011
KCDC 141553Z AUTO 22013G17KT 10SM CLR 29/01 A3011 RMK AO2 SLP097 T02940006
KCDC 141453Z AUTO 19004KT 10SM CLR 27/01 A3011 RMK AO2 SLP099 T02670011 51008
KCDC 141353Z AUTO 15004KT 9SM CLR 24/02 A3011 RMK AO2 SLP098 T02390022
KCDC 141253Z AUTO 19003KT 10SM CLR 21/02 A3010 RMK AO2 SLP097 T02060022
KCDC 141153Z AUTO 15006KT 10SM CLR 21/02 A3009 RMK AO2 SLP089 T02110022 10272 20200 53012
KCDC 141053Z AUTO 20005KT 10SM CLR 20/02 A3007 RMK AO2 SLP084 T02000022
KCDC 140953Z AUTO 22004KT 10SM CLR 22/02 A3005 RMK AO2 SLP074 T02170017
KCDC 140853Z AUTO 21006KT 10SM CLR 23/01 A3005 RMK AO2 SLP070 T02330011 53003
KCDC 140753Z AUTO 18010KT 10SM CLR 27/M01 A3004 RMK AO2 SLP065 T02671011
KCDC 140653Z AUTO 19010KT 10SM CLR 27/M01 A3004 RMK AO2 SLP064 T02671006 403610200
KCDC 140553Z AUTO 19010KT 10SM CLR 27/M01 A3003 RMK AO2 SLP065 T02721011 10350 20239 51007
KCDC 140453Z AUTO 23007KT 10SM CLR 24/M01 A3003 RMK AO2 SLP069 T02441011
KCDC 140353Z AUTO 22010KT 10SM CLR 27/M01 A3002 RMK AO2 SLP064 T02671011
KCDC 140253Z AUTO 21013KT 10SM CLR 29/M02 A3001 RMK AO2 SLP059 T02941017 53003
KCDC 140153Z AUTO 22014KT 10SM CLR 32/00 A3000 RMK AO2 PK WND 25026/0057 SLP058 T03170000